createdAt,value
2022-10-14T00:01:23.041Z,30.45
2022-10-14T00:03:51.276Z,32.13
2022-10-14T00:06:24.701Z,32.28
2022-10-14T00:08:51.910Z,29.95
2022-10-14T00:11:26.272Z,37.05
2022-10-14T00:13:59.376Z,27.57
2022-10-14T00:16:34.711Z,34.92
2022-10-14T00:19:02.275Z,35.92
2022-10-14T00:21:30.154Z,37.63
2022-10-14T00:23:58.224Z,36.83
2022-10-14T00:26:31.093Z,34.20
2022-10-14T00:29:00.799Z,37.50
2022-10-14T00:31:32.564Z,35.17
2022-10-14T00:33:59.957Z,39.28
2022-10-14T00:36:27.198Z,37.15
2022-10-14T00:38:55.077Z,36.20
2022-10-14T00:41:32.501Z,32.95
2022-10-14T00:44:25.040Z,32.45
2022-10-14T00:46:52.265Z,42.33
2022-10-14T00:49:27.913Z,37.55
2022-10-14T00:52:11.654Z,37.42
2022-10-14T00:54:46.642Z,35.83
2022-10-14T00:57:14.560Z,35.97
2022-10-14T00:59:41.957Z,36.00
2022-10-14T01:02:09.446Z,31.73
2022-10-14T01:04:40.786Z,36.70
2022-10-14T01:07:28.221Z,38.75
2022-10-14T01:10:47.689Z,37.22
2022-10-14T01:13:33.321Z,39.67
2022-10-14T01:16:41.760Z,38.28
2022-10-14T01:20:00.954Z,38.67
2022-10-14T01:22:56.510Z,35.35
2022-10-14T01:25:35.343Z,36.05
2022-10-14T01:28:26.620Z,36.08
2022-10-14T01:31:03.499Z,34.50
2022-10-14T01:33:41.033Z,33.30
2022-10-14T01:36:31.432Z,35.20
2022-10-14T01:39:12.582Z,33.35
2022-10-14T01:41:46.694Z,26.10
2022-10-14T01:44:19.502Z,30.70
2022-10-14T01:46:53.031Z,27.98
2022-10-14T01:49:37.665Z,30.35
2022-10-14T01:52:22.804Z,28.53
2022-10-14T01:57:31.572Z,28.70
2022-10-14T02:02:27.225Z,31.48
2022-10-14T02:04:54.416Z,27.00
2022-10-14T02:07:41.531Z,33.45
2022-10-14T02:10:27.803Z,32.80
2022-10-14T02:13:29.928Z,31.48
2022-10-14T02:16:15.677Z,32.15
2022-10-14T02:18:56.465Z,26.05
2022-10-14T02:21:30.159Z,29.30
2022-10-14T02:24:12.795Z,35.03
2022-10-14T02:26:42.187Z,29.13
2022-10-14T02:29:09.336Z,27.75
2022-10-14T02:31:39.746Z,28.58
2022-10-14T02:34:12.536Z,30.98
2022-10-14T02:36:42.074Z,30.23
2022-10-14T02:39:14.327Z,35.65
2022-10-14T02:41:41.709Z,37.42
2022-10-14T02:44:09.276Z,30.63
2022-10-14T02:46:40.055Z,31.83
2022-10-14T02:49:09.420Z,33.80
2022-10-14T02:51:36.292Z,37.08
2022-10-14T02:54:03.286Z,38.03
2022-10-14T02:56:30.144Z,39.33
2022-10-14T02:59:00.683Z,43.63
2022-10-14T03:01:27.971Z,37.50
2022-10-14T03:03:54.858Z,40.35
2022-10-14T03:06:23.085Z,41.13
2022-10-14T03:08:50.237Z,37.55
2022-10-14T03:11:17.141Z,35.85
2022-10-14T03:13:44.583Z,36.28
2022-10-14T03:16:11.968Z,42.58
2022-10-14T03:18:43.194Z,39.08
2022-10-14T03:21:20.176Z,34.03
2022-10-14T03:23:47.137Z,43.45
2022-10-14T03:26:14.322Z,37.33
2022-10-14T03:28:44.281Z,36.05
2022-10-14T03:31:17.401Z,40.22
2022-10-14T03:34:04.235Z,45.20
2022-10-14T03:36:32.031Z,43.70
2022-10-14T03:38:59.016Z,41.10
2022-10-14T03:44:31.690Z,36.42
2022-10-14T03:47:21.755Z,42.78
2022-10-14T03:49:48.724Z,42.75
2022-10-14T03:52:24.426Z,43.08
2022-10-14T03:55:08.504Z,44.10
2022-10-14T03:57:35.885Z,36.75
2022-10-14T04:00:06.670Z,44.20
2022-10-14T04:02:42.940Z,38.70
2022-10-14T04:05:24.134Z,41.58
2022-10-14T04:07:51.721Z,42.22
2022-10-14T04:10:18.629Z,43.47
2022-10-14T04:12:51.499Z,37.67
2022-10-14T04:15:23.861Z,37.25
2022-10-14T04:18:14.043Z,39.28
2022-10-14T04:20:42.608Z,39.88
2022-10-14T04:23:10.488Z,35.50
2022-10-14T04:25:40.694Z,44.78
2022-10-14T04:28:07.893Z,39.33
2022-10-14T04:30:45.544Z,43.88
2022-10-14T04:33:18.133Z,36.60
2022-10-14T04:35:47.125Z,41.67
2022-10-14T04:38:21.388Z,39.23
2022-10-14T04:40:55.230Z,46.80
2022-10-14T04:43:22.671Z,37.10
2022-10-14T04:45:50.627Z,43.60
2022-10-14T04:48:23.945Z,41.03
2022-10-14T04:50:53.010Z,39.25
2022-10-14T04:53:45.166Z,41.88
2022-10-14T04:59:01.766Z,35.92
2022-10-14T05:01:48.129Z,45.35
2022-10-14T05:04:15.500Z,48.78
2022-10-14T05:06:44.750Z,44.33
2022-10-14T05:09:14.254Z,46.33
2022-10-14T05:11:41.557Z,46.85
2022-10-14T05:14:10.946Z,44.03
2022-10-14T05:16:39.234Z,51.38
2022-10-14T05:19:08.193Z,43.63
2022-10-14T05:21:39.598Z,39.45
2022-10-14T05:24:12.603Z,42.72
2022-10-14T05:26:40.837Z,47.35
2022-10-14T05:29:12.312Z,43.67
2022-10-14T05:31:40.438Z,52.65
2022-10-14T05:34:21.218Z,53.13
2022-10-14T05:36:48.260Z,39.83
2022-10-14T05:39:16.139Z,41.38
2022-10-14T05:41:43.506Z,42.85
2022-10-14T05:44:12.200Z,41.90
2022-10-14T05:46:39.842Z,37.35
2022-10-14T05:49:06.926Z,45.42
2022-10-14T05:51:37.646Z,38.63
2022-10-14T05:54:12.847Z,41.38
2022-10-14T05:56:42.202Z,43.03
2022-10-14T05:59:10.651Z,45.17
2022-10-14T06:01:38.372Z,49.40
2022-10-14T06:04:05.384Z,42.10
2022-10-14T06:06:32.922Z,42.47
2022-10-14T06:09:00.162Z,44.47
2022-10-14T06:11:27.073Z,43.25
2022-10-14T06:13:54.153Z,40.53
2022-10-14T06:16:21.161Z,44.72
2022-10-14T06:18:52.278Z,48.38
2022-10-14T06:21:22.109Z,47.42
2022-10-14T06:23:49.149Z,45.15
2022-10-14T06:26:15.984Z,42.17
2022-10-14T06:28:42.870Z,46.10
2022-10-14T06:31:09.995Z,46.17
2022-10-14T06:33:36.899Z,50.67
2022-10-14T06:36:07.139Z,45.90
2022-10-14T06:38:34.113Z,42.35
2022-10-14T06:41:01.286Z,36.78
2022-10-14T06:43:28.198Z,40.75
2022-10-14T06:45:58.399Z,43.85
2022-10-14T06:48:25.475Z,37.38
2022-10-14T06:50:53.195Z,40.42
2022-10-14T06:53:20.190Z,38.33
2022-10-14T06:56:22.224Z,43.08
2022-10-14T06:59:02.052Z,42.97
2022-10-14T07:01:32.164Z,44.40
2022-10-14T07:04:00.893Z,40.15
2022-10-14T07:06:27.771Z,38.00
2022-10-14T07:08:54.642Z,40.17
2022-10-14T07:11:21.438Z,37.42
2022-10-14T07:13:48.382Z,38.45
2022-10-14T07:16:15.405Z,39.33
2022-10-14T07:18:42.303Z,35.70
2022-10-14T07:21:09.173Z,44.78
2022-10-14T07:23:36.041Z,36.88
2022-10-14T07:26:03.838Z,43.58
2022-10-14T07:28:34.007Z,39.47
2022-10-14T07:31:05.469Z,42.08
2022-10-14T07:33:33.139Z,38.33
2022-10-14T07:36:10.608Z,37.50
2022-10-14T07:38:38.099Z,33.97
2022-10-14T07:48:27.149Z,40.72
2022-10-14T07:51:08.013Z,39.22
2022-10-14T07:53:37.261Z,41.53
2022-10-14T07:56:04.463Z,38.28
2022-10-14T07:58:32.119Z,39.85
2022-10-14T08:00:59.392Z,44.65
2022-10-14T08:03:26.735Z,41.00
2022-10-14T08:06:02.828Z,38.17
2022-10-14T08:08:30.002Z,40.80
2022-10-14T08:11:22.012Z,32.13
2022-10-14T08:14:02.747Z,38.30
2022-10-14T08:16:33.756Z,38.55
2022-10-14T08:19:13.802Z,38.47
2022-10-14T08:21:43.679Z,35.63
2022-10-14T08:24:11.950Z,36.13
2022-10-14T08:27:03.773Z,39.72
2022-10-14T08:29:36.555Z,37.60
2022-10-14T08:32:26.653Z,35.33
2022-10-14T08:35:34.382Z,35.42
2022-10-14T08:43:40.027Z,34.30
2022-10-14T08:47:26.560Z,39.60
2022-10-14T08:51:01.679Z,34.08
2022-10-14T08:53:45.992Z,37.55
2022-10-14T09:01:24.060Z,31.52
2022-10-14T09:04:15.787Z,31.67
2022-10-14T09:06:54.030Z,31.95
2022-10-14T09:10:09.522Z,34.78
2022-10-14T09:21:04.928Z,34.72
2022-10-14T09:35:33.262Z,27.67
2022-10-14T09:38:14.811Z,29.52
2022-10-14T09:40:57.804Z,32.67
2022-10-14T09:50:45.062Z,29.20
2022-10-14T09:53:25.349Z,30.48
2022-10-14T09:56:02.899Z,27.85
2022-10-14T09:58:53.866Z,29.83
2022-10-14T10:01:24.980Z,27.88
2022-10-14T10:03:55.002Z,30.30
2022-10-14T10:06:26.892Z,26.75
2022-10-14T10:08:54.392Z,27.23
2022-10-14T10:11:40.161Z,25.55
2022-10-14T10:14:34.059Z,26.90
2022-10-14T10:17:10.835Z,27.42
2022-10-14T10:19:52.759Z,26.65
2022-10-14T10:22:20.989Z,30.95
2022-10-14T10:24:59.146Z,24.15
2022-10-14T10:27:27.638Z,24.15
2022-10-14T10:29:59.031Z,26.20
2022-10-14T10:32:44.719Z,24.48
2022-10-14T10:35:25.180Z,23.52
2022-10-14T10:38:21.443Z,20.83
2022-10-14T10:41:25.841Z,23.38
2022-10-14T10:44:26.330Z,23.92
2022-10-14T10:47:41.901Z,22.27
2022-10-14T10:50:14.593Z,20.70
2022-10-14T10:53:02.547Z,19.90
2022-10-14T10:56:04.518Z,20.23
2022-10-14T10:58:56.539Z,20.95
2022-10-14T11:01:57.402Z,18.02
2022-10-14T11:04:49.144Z,20.90
2022-10-14T11:08:18.144Z,18.02
2022-10-14T11:19:40.947Z,17.95
2022-10-14T11:23:55.126Z,15.77
2022-10-14T11:49:18.257Z,15.00
2022-10-14T11:52:03.388Z,17.05
2022-10-14T11:58:16.490Z,16.95
2022-10-14T12:01:22.309Z,15.30
2022-10-14T12:39:37.833Z,10.30
2022-10-14T12:56:11.385Z,8.45
2022-10-14T12:59:05.826Z,8.68
2022-10-14T13:01:36.996Z,9.68
2022-10-14T13:04:19.922Z,8.02
2022-10-14T13:07:35.709Z,11.27
2022-10-14T13:10:45.993Z,9.63
2022-10-14T13:13:43.052Z,10.10
2022-10-14T13:16:25.718Z,10.82
2022-10-14T13:19:00.793Z,13.40
2022-10-14T13:21:43.501Z,15.70
2022-10-14T13:24:32.814Z,10.88
2022-10-14T13:27:36.732Z,10.88
2022-10-14T13:30:24.483Z,11.05
2022-10-14T13:33:07.474Z,9.50
2022-10-14T13:36:10.657Z,11.75
2022-10-14T13:38:45.361Z,13.43
2022-10-14T13:41:30.642Z,11.40
2022-10-14T13:44:01.182Z,11.70
2022-10-14T13:46:46.539Z,15.45
2022-10-14T13:49:36.659Z,15.82
2022-10-14T13:52:12.853Z,19.55
2022-10-14T13:54:39.730Z,21.27
2022-10-14T14:00:41.463Z,21.77
2022-10-14T14:03:26.836Z,25.40
2022-10-14T14:05:58.794Z,26.65
2022-10-14T14:09:10.298Z,23.20
2022-10-14T14:11:38.442Z,25.17
2022-10-14T14:14:22.950Z,23.98
2022-10-14T14:17:05.652Z,23.17
2022-10-14T14:19:45.712Z,25.83
2022-10-14T14:22:29.365Z,25.67
2022-10-14T14:25:35.714Z,25.30
2022-10-14T14:28:15.329Z,25.73
2022-10-14T14:30:56.352Z,24.65
2022-10-14T14:33:36.157Z,27.48
2022-10-14T14:37:53.438Z,29.52
2022-10-14T14:46:45.627Z,29.10
2022-10-14T14:49:38.833Z,29.92
2022-10-14T14:52:07.868Z,31.52
2022-10-14T14:54:44.720Z,28.42
2022-10-14T14:57:19.749Z,28.67
2022-10-14T15:00:04.502Z,28.33
2022-10-14T15:02:34.761Z,30.33
2022-10-14T15:05:05.708Z,27.05
2022-10-14T15:07:33.723Z,26.15
2022-10-14T15:10:07.144Z,25.50
2022-10-14T15:12:41.892Z,25.13
2022-10-14T15:15:33.013Z,23.85
2022-10-14T15:18:20.946Z,26.75
2022-10-14T15:20:49.507Z,27.17
2022-10-14T15:23:50.565Z,23.17
2022-10-14T15:26:27.943Z,25.42
2022-10-14T15:29:22.671Z,23.80
2022-10-14T15:32:01.895Z,23.92
2022-10-14T15:34:29.159Z,23.80
2022-10-14T15:36:56.330Z,20.90
2022-10-14T15:39:23.455Z,20.27
2022-10-14T15:41:50.317Z,20.88
2022-10-14T15:44:17.283Z,19.80
2022-10-14T15:47:05.266Z,20.05
2022-10-14T15:49:42.556Z,20.55
2022-10-14T15:52:16.424Z,21.52
2022-10-14T15:54:45.805Z,19.35
2022-10-14T15:57:16.703Z,19.35
2022-10-14T16:00:33.735Z,23.45
2022-10-14T16:03:08.650Z,20.50
2022-10-14T16:05:41.111Z,25.13
2022-10-14T16:08:19.075Z,21.25
2022-10-14T16:10:50.817Z,22.08
2022-10-14T16:13:17.753Z,21.40
2022-10-14T16:15:54.775Z,26.73
2022-10-14T16:18:23.488Z,25.33
2022-10-14T16:20:53.518Z,30.67
2022-10-14T16:23:28.174Z,23.27
2022-10-14T16:26:14.582Z,27.42
2022-10-14T16:28:41.462Z,26.65
2022-10-14T16:31:14.095Z,26.75
2022-10-14T16:33:44.791Z,23.52
2022-10-14T16:36:15.052Z,21.67
2022-10-14T16:38:45.781Z,20.42
2022-10-14T16:41:13.897Z,22.88
2022-10-14T16:43:46.620Z,22.15
2022-10-14T16:46:49.210Z,22.70
2022-10-14T16:49:46.764Z,28.15
2022-10-14T16:52:16.010Z,27.25
2022-10-14T16:54:43.460Z,23.48
2022-10-14T16:57:12.683Z,25.25
2022-10-14T16:59:40.087Z,23.58
2022-10-14T17:02:10.961Z,24.80
2022-10-14T17:04:39.250Z,24.80
2022-10-14T17:07:08.935Z,25.05
2022-10-14T17:09:38.959Z,29.42
2022-10-14T17:12:09.457Z,31.10
2022-10-14T17:14:40.687Z,31.65
2022-10-14T17:17:07.482Z,26.92
2022-10-14T17:19:35.045Z,34.15
2022-10-14T17:22:03.234Z,37.60
2022-10-14T17:24:30.424Z,30.80
2022-10-14T17:26:57.458Z,33.72
2022-10-14T17:29:24.334Z,33.08
2022-10-14T17:31:51.539Z,34.60
2022-10-14T17:34:18.373Z,38.10
2022-10-14T17:36:45.561Z,35.08
2022-10-14T17:39:18.718Z,30.38
2022-10-14T17:41:51.394Z,36.53
2022-10-14T17:44:18.884Z,33.88
2022-10-14T17:46:45.964Z,34.45
2022-10-14T17:49:13.208Z,34.55
2022-10-14T17:51:40.022Z,33.00
2022-10-14T17:54:11.476Z,31.95
2022-10-14T17:56:39.876Z,28.30
2022-10-14T17:59:12.448Z,29.88
2022-10-14T18:04:26.596Z,30.83
2022-10-14T18:06:54.232Z,28.70
2022-10-14T18:09:21.307Z,25.40
2022-10-14T18:14:38.688Z,24.67
2022-10-14T18:17:06.362Z,29.30
2022-10-14T18:19:33.738Z,30.63
2022-10-14T18:22:01.903Z,21.77
2022-10-14T18:24:28.877Z,23.30
2022-10-14T18:26:55.797Z,24.08
2022-10-14T18:29:24.562Z,25.52
2022-10-14T18:34:25.319Z,23.42
2022-10-14T18:36:52.210Z,20.45
2022-10-14T18:39:20.427Z,18.92
2022-10-14T18:41:47.761Z,17.80
2022-10-14T18:44:15.355Z,20.63
2022-10-14T18:46:42.292Z,18.65
2022-10-14T18:49:11.706Z,22.80
2022-10-14T18:51:40.617Z,20.05
2022-10-14T18:54:13.881Z,19.58
2022-10-14T18:56:41.646Z,21.90
2022-10-14T18:59:16.010Z,18.33
2022-10-14T19:01:44.162Z,23.10
2022-10-14T19:04:13.593Z,18.73
2022-10-14T19:06:43.604Z,18.48
2022-10-14T19:09:12.646Z,19.02
2022-10-14T19:11:41.262Z,17.50
2022-10-14T19:14:09.909Z,19.60
2022-10-14T19:16:38.684Z,17.92
2022-10-14T19:19:16.733Z,18.13
2022-10-14T19:21:56.155Z,19.05
2022-10-14T19:24:23.032Z,17.52
2022-10-14T19:26:50.164Z,17.45
2022-10-14T19:29:17.415Z,14.48
2022-10-14T19:31:44.667Z,16.85
2022-10-14T19:34:15.318Z,15.65
2022-10-14T19:36:43.957Z,16.30
2022-10-14T19:39:15.390Z,18.60
2022-10-14T19:41:44.299Z,16.30
2022-10-14T19:44:14.147Z,16.77
2022-10-14T19:46:41.456Z,14.00
2022-10-14T19:49:12.447Z,16.17
2022-10-14T19:51:39.776Z,14.68
2022-10-14T19:54:06.703Z,17.85
2022-10-14T19:56:33.639Z,17.77
2022-10-14T19:59:01.698Z,17.45
2022-10-14T20:01:31.046Z,15.13
2022-10-14T20:04:01.365Z,14.23
2022-10-14T20:06:37.655Z,15.07
2022-10-14T20:09:05.165Z,15.77
2022-10-14T20:11:32.341Z,12.90
2022-10-14T20:13:59.666Z,14.23
2022-10-14T20:16:27.193Z,13.10
2022-10-14T20:18:54.958Z,13.95
2022-10-14T20:21:22.048Z,13.43
2022-10-14T20:23:48.880Z,18.05
2022-10-14T20:26:21.436Z,17.42
2022-10-14T20:28:49.869Z,16.80
2022-10-14T20:31:21.752Z,18.92
2022-10-14T20:33:49.117Z,16.30
2022-10-14T20:36:20.265Z,15.68
2022-10-14T20:38:48.110Z,15.20
2022-10-14T20:41:22.531Z,18.13
2022-10-14T20:43:49.685Z,16.45
2022-10-14T20:46:17.751Z,20.83
2022-10-14T20:48:44.714Z,17.67
2022-10-14T20:51:16.457Z,17.15
2022-10-14T20:53:43.609Z,13.75
2022-10-14T20:56:12.988Z,15.60
2022-10-14T20:58:40.339Z,14.23
2022-10-14T21:01:16.890Z,14.02
2022-10-14T21:03:46.537Z,12.65
2022-10-14T21:06:19.367Z,17.33
2022-10-14T21:08:49.498Z,16.27
2022-10-14T21:11:20.580Z,12.05
2022-10-14T21:13:50.998Z,12.63
2022-10-14T21:16:34.865Z,16.15
2022-10-14T21:19:06.538Z,13.57
2022-10-14T21:21:39.001Z,21.20
2022-10-14T21:24:06.938Z,18.02
2022-10-14T21:26:34.074Z,15.90
2022-10-14T21:29:04.412Z,14.43
2022-10-14T21:31:32.042Z,14.40
2022-10-14T21:34:05.335Z,16.30
2022-10-14T21:36:34.573Z,14.73
2022-10-14T21:39:06.981Z,14.05
2022-10-14T21:41:35.105Z,16.90
2022-10-14T21:44:02.141Z,15.70
2022-10-14T21:46:29.047Z,14.15
2022-10-14T21:48:57.749Z,15.18
2022-10-14T21:51:28.188Z,15.93
2022-10-14T21:53:55.931Z,13.60
2022-10-14T21:56:23.933Z,16.67
2022-10-14T21:58:50.979Z,14.35
2022-10-14T22:01:26.110Z,18.90
2022-10-14T22:04:03.862Z,17.13
2022-10-14T22:06:33.875Z,19.33
2022-10-14T22:09:05.466Z,12.13
2022-10-14T22:11:39.743Z,12.73
2022-10-14T22:14:12.695Z,14.38
2022-10-14T22:16:40.145Z,12.88
2022-10-14T22:19:08.137Z,14.13
2022-10-14T22:21:37.620Z,12.75
2022-10-14T22:26:35.072Z,14.63
2022-10-14T22:29:11.563Z,12.90
2022-10-14T22:31:38.601Z,12.73
2022-10-14T22:34:07.821Z,11.50
2022-10-14T22:36:35.918Z,13.85
2022-10-14T22:39:08.377Z,11.20
2022-10-14T22:41:36.107Z,13.55
2022-10-14T22:44:05.300Z,9.18
2022-10-14T22:46:35.688Z,10.80
2022-10-14T22:49:02.743Z,10.20
2022-10-14T22:51:33.753Z,12.52
2022-10-14T22:54:00.818Z,12.68
2022-10-14T22:56:30.733Z,10.18
2022-10-14T22:59:10.864Z,11.35
2022-10-14T23:01:39.714Z,14.18
2022-10-14T23:04:06.908Z,11.60
2022-10-14T23:06:33.924Z,10.77
2022-10-14T23:09:01.369Z,9.95
2022-10-14T23:11:30.592Z,11.23
2022-10-14T23:14:00.305Z,10.32
2022-10-14T23:16:29.849Z,11.48
2022-10-14T23:18:58.977Z,12.70
2022-10-14T23:21:32.824Z,9.80
2022-10-14T23:24:04.626Z,10.25
2022-10-14T23:26:34.477Z,10.93
2022-10-14T23:29:11.847Z,13.45
2022-10-14T23:31:40.407Z,11.93
2022-10-14T23:34:13.107Z,10.88
2022-10-14T23:36:40.360Z,12.32
2022-10-14T23:39:07.347Z,10.45
2022-10-14T23:41:34.319Z,11.02
2022-10-14T23:44:01.240Z,11.18
2022-10-14T23:46:28.090Z,11.15
2022-10-14T23:49:06.587Z,12.20
2022-10-14T23:51:35.632Z,9.30
2022-10-14T23:54:03.151Z,12.52
2022-10-14T23:56:30.001Z,10.48
2022-10-14T23:58:56.993Z,13.38
